createdAt,value
2023-04-26T00:00:18.196Z,617.6
2023-04-26T00:01:19.814Z,617.8
2023-04-26T00:02:21.906Z,617.9
2023-04-26T00:03:24.718Z,618.3
2023-04-26T00:04:27.755Z,618.1
2023-04-26T00:05:30.040Z,618.2
2023-04-26T00:06:31.658Z,618.1
2023-04-26T00:07:33.234Z,618.6
2023-04-26T00:08:34.888Z,618.5
2023-04-26T00:09:36.486Z,618.8
2023-04-26T00:10:38.095Z,618.8
2023-04-26T00:11:39.736Z,618.8
2023-04-26T00:12:41.365Z,619.5
2023-04-26T00:13:42.972Z,619.1
2023-04-26T00:14:44.666Z,619.7
2023-04-26T00:15:46.279Z,620
2023-04-26T00:16:48.563Z,620.2
2023-04-26T00:17:50.513Z,620.8
2023-04-26T00:18:53.726Z,621
2023-04-26T00:19:55.678Z,620.9
2023-04-26T00:20:57.312Z,620.8
2023-04-26T00:21:58.955Z,621.1
2023-04-26T00:23:00.601Z,621
2023-04-26T00:24:02.306Z,620.9
2023-04-26T00:25:03.922Z,620.8
2023-04-26T00:26:05.555Z,621.1
2023-04-26T00:27:07.152Z,621
2023-04-26T00:28:08.808Z,621.2
2023-04-26T00:29:10.439Z,620.7
2023-04-26T00:30:12.071Z,621
2023-04-26T00:31:13.774Z,620.8
2023-04-26T00:32:15.439Z,621.1
2023-04-26T00:33:17.070Z,620.9
2023-04-26T00:34:18.607Z,621.2
2023-04-26T00:35:20.292Z,621.4
2023-04-26T00:36:21.941Z,621.8
2023-04-26T00:37:23.574Z,622
2023-04-26T00:38:25.212Z,622.1
2023-04-26T00:39:26.809Z,622.2
2023-04-26T00:40:28.413Z,622.2
2023-04-26T00:41:30.044Z,622.3
2023-04-26T00:42:31.622Z,622.4
2023-04-26T00:43:33.332Z,622.2
2023-04-26T00:44:34.920Z,622.2
2023-04-26T00:45:36.657Z,622.1
2023-04-26T00:46:38.348Z,622
2023-04-26T00:47:40.529Z,622.2
2023-04-26T00:48:42.231Z,621.8
2023-04-26T00:49:43.823Z,622
2023-04-26T00:50:45.447Z,621.8
2023-04-26T00:51:47.209Z,621.7
2023-04-26T00:52:48.835Z,622
2023-04-26T00:53:50.429Z,622.1
2023-04-26T00:54:52.031Z,622
2023-04-26T00:55:53.874Z,622.1
2023-04-26T00:56:55.502Z,622
2023-04-26T00:57:57.158Z,621.8
2023-04-26T00:58:58.834Z,622.1
2023-04-26T01:00:00.596Z,622
2023-04-26T01:01:02.408Z,622.1
2023-04-26T01:02:04.272Z,622
2023-04-26T01:03:07.311Z,621.7
2023-04-26T01:04:09.852Z,621.7
2023-04-26T01:05:11.560Z,621.9
2023-04-26T01:06:13.164Z,621.8
2023-04-26T01:07:14.922Z,621.8
2023-04-26T01:08:16.515Z,621.6
2023-04-26T01:09:18.140Z,621.9
2023-04-26T01:10:19.761Z,621.6
2023-04-26T01:11:21.328Z,621.7
2023-04-26T01:12:22.951Z,621.7
2023-04-26T01:13:24.524Z,621.1
2023-04-26T01:14:26.191Z,621.1
2023-04-26T01:15:27.765Z,621.5
2023-04-26T01:16:29.598Z,621.5
2023-04-26T01:17:31.687Z,621.5
2023-04-26T01:18:33.395Z,621.7
2023-04-26T01:19:35.048Z,621.3
2023-04-26T01:20:36.656Z,621.4
2023-04-26T01:21:38.317Z,621.6
2023-04-26T01:22:39.998Z,621.7
2023-04-26T01:23:41.642Z,621.7
2023-04-26T01:24:46.440Z,622.1
2023-04-26T01:25:48.007Z,622.2
2023-04-26T01:26:49.592Z,622.7
2023-04-26T01:27:51.246Z,622.6
2023-04-26T01:28:53.878Z,623.3
2023-04-26T01:29:55.756Z,623.3
2023-04-26T01:30:57.574Z,623.3
2023-04-26T01:31:59.352Z,623.3
2023-04-26T01:33:01.227Z,623
2023-04-26T01:34:02.975Z,623
2023-04-26T01:35:04.653Z,622.9
2023-04-26T01:36:06.280Z,623
2023-04-26T01:37:07.930Z,622.5
2023-04-26T01:38:09.709Z,622.9
2023-04-26T01:39:11.338Z,622.7
2023-04-26T01:40:12.924Z,622.5
2023-04-26T01:41:14.526Z,622.5
2023-04-26T01:42:16.277Z,621.9
2023-04-26T01:43:17.860Z,622
2023-04-26T01:44:19.478Z,622
2023-04-26T01:45:21.080Z,621.9
2023-04-26T01:46:23.075Z,621.8
2023-04-26T01:47:25.131Z,621.7
2023-04-26T01:48:26.780Z,621.7
2023-04-26T01:49:28.441Z,621.7
2023-04-26T01:50:30.090Z,621.5
2023-04-26T01:51:31.785Z,621.6
2023-04-26T01:52:33.442Z,621.7
2023-04-26T01:53:35.062Z,621.6
2023-04-26T01:54:36.660Z,621.6
2023-04-26T01:55:38.328Z,621.5
2023-04-26T01:56:39.965Z,621.8
2023-04-26T01:57:41.619Z,621.9
2023-04-26T01:58:43.272Z,622
2023-04-26T01:59:44.858Z,622.4
2023-04-26T02:00:46.437Z,622.6
2023-04-26T02:01:48.363Z,622.8
2023-04-26T02:02:50.619Z,622.9
2023-04-26T02:03:52.330Z,623.1
2023-04-26T02:04:54.404Z,623.1
2023-04-26T02:05:56.015Z,623.4
2023-04-26T02:06:57.719Z,623.1
2023-04-26T02:07:59.321Z,623.1
2023-04-26T02:09:01.112Z,623.1
2023-04-26T02:10:02.753Z,623.4
2023-04-26T02:11:04.352Z,623
2023-04-26T02:12:05.993Z,623.1
2023-04-26T02:13:07.933Z,622.9
2023-04-26T02:14:09.559Z,622.6
2023-04-26T02:15:11.218Z,622.8
2023-04-26T02:16:13.296Z,622.9
2023-04-26T02:17:14.910Z,623.4
2023-04-26T02:18:16.564Z,623.4
2023-04-26T02:19:18.167Z,623.5
2023-04-26T02:20:19.800Z,623.2
2023-04-26T02:21:21.386Z,623.5
2023-04-26T02:22:22.982Z,624.2
2023-04-26T02:23:24.758Z,624.3
2023-04-26T02:24:26.635Z,624.3
2023-04-26T02:25:28.233Z,623.6
2023-04-26T02:26:29.966Z,623.6
2023-04-26T02:27:31.668Z,623.4
2023-04-26T02:28:33.264Z,622.9
2023-04-26T02:29:45.346Z,623
2023-04-26T02:30:47.013Z,622.9
2023-04-26T02:31:48.934Z,622.9
2023-04-26T02:32:51.000Z,622.7
2023-04-26T02:33:52.648Z,622.8
2023-04-26T02:34:54.525Z,622.5
2023-04-26T02:35:56.154Z,622.6
2023-04-26T02:36:57.815Z,623.1
2023-04-26T02:37:59.456Z,622.7
2023-04-26T02:39:01.090Z,622.9
2023-04-26T02:40:02.773Z,622.6
2023-04-26T02:41:04.389Z,622.6
2023-04-26T02:42:06.065Z,622.7
2023-04-26T02:43:07.706Z,623.1
2023-04-26T02:44:09.352Z,623
2023-04-26T02:45:10.971Z,623.8
2023-04-26T02:46:12.696Z,623.5
2023-04-26T02:47:14.397Z,624
2023-04-26T02:48:15.959Z,624.4
2023-04-26T02:49:17.800Z,624.4
2023-04-26T02:50:19.476Z,624.2
2023-04-26T02:51:21.179Z,624.8
2023-04-26T02:52:22.754Z,624.8
2023-04-26T02:53:24.325Z,624.7
2023-04-26T02:54:25.916Z,624.7
2023-04-26T02:55:27.710Z,624.9
2023-04-26T02:56:29.371Z,625
2023-04-26T02:57:30.956Z,625.7
2023-04-26T02:58:32.564Z,625.6
2023-04-26T02:59:34.180Z,626.1
2023-04-26T03:00:36.047Z,625.9
2023-04-26T03:01:38.133Z,625.5
2023-04-26T03:02:40.456Z,625.6
2023-04-26T03:03:43.033Z,625
2023-04-26T03:04:44.781Z,625.2
2023-04-26T03:05:46.429Z,624.8
2023-04-26T03:06:48.191Z,624.6
2023-04-26T03:07:49.883Z,624.6
2023-04-26T03:08:52.857Z,624.7
2023-04-26T03:09:54.873Z,624.7
2023-04-26T03:10:56.573Z,624.4
2023-04-26T03:11:58.244Z,624.8
2023-04-26T03:12:59.854Z,625
2023-04-26T03:14:01.468Z,625.1
2023-04-26T03:15:03.072Z,625.2
2023-04-26T03:16:04.815Z,624.9
2023-04-26T03:17:06.419Z,624.9
2023-04-26T03:18:08.691Z,625.5
2023-04-26T03:19:10.458Z,625.6
2023-04-26T03:20:12.256Z,625.5
2023-04-26T03:21:13.847Z,625.6
2023-04-26T03:22:15.467Z,625.7
2023-04-26T03:23:17.085Z,625.2
2023-04-26T03:24:18.841Z,625.3
2023-04-26T03:25:20.498Z,625.3
2023-04-26T03:26:22.359Z,625.5
2023-04-26T03:27:24.021Z,625.5
2023-04-26T03:28:25.609Z,625.1
2023-04-26T03:29:27.260Z,625.1
2023-04-26T03:30:28.928Z,624.8
2023-04-26T03:31:30.611Z,624.6
2023-04-26T03:32:32.464Z,624.3
2023-04-26T03:33:34.147Z,624.8
2023-04-26T03:34:35.758Z,624.6
2023-04-26T03:35:37.558Z,625
2023-04-26T03:36:39.148Z,624.9
2023-04-26T03:37:40.770Z,625
2023-04-26T03:38:42.373Z,624.9
2023-04-26T03:39:44.006Z,624.9
2023-04-26T03:40:45.584Z,625
2023-04-26T03:41:47.296Z,625
2023-04-26T03:42:48.920Z,624.6
2023-04-26T03:43:50.527Z,624.8
2023-04-26T03:44:52.124Z,624.7
2023-04-26T03:45:53.927Z,624.3
2023-04-26T03:46:55.585Z,624.6
2023-04-26T03:47:57.644Z,624.9
2023-04-26T03:48:59.310Z,624.6
2023-04-26T03:50:01.253Z,624.8
2023-04-26T03:51:02.871Z,624.8
2023-04-26T03:52:04.542Z,624.3
2023-04-26T03:53:06.198Z,624
2023-04-26T03:54:07.847Z,623.8
2023-04-26T03:55:09.503Z,623.6
2023-04-26T03:56:11.102Z,624.1
2023-04-26T03:57:12.929Z,624.5
2023-04-26T03:58:14.533Z,623.9
2023-04-26T03:59:16.179Z,623.8
2023-04-26T04:00:17.768Z,623.7
2023-04-26T04:01:19.372Z,623.9
2023-04-26T04:02:21.737Z,624
2023-04-26T04:03:24.485Z,623.8
2023-04-26T04:04:27.680Z,624
2023-04-26T04:05:29.715Z,624.1
2023-04-26T04:06:31.392Z,624
2023-04-26T04:07:32.981Z,623.6
2023-04-26T04:08:34.673Z,622.8
2023-04-26T04:09:36.266Z,622.4
2023-04-26T04:10:37.869Z,622.5
2023-04-26T04:11:39.510Z,622.7
2023-04-26T04:12:41.252Z,622.4
2023-04-26T04:13:42.885Z,622.7
2023-04-26T04:14:44.494Z,622.5
2023-04-26T04:15:46.385Z,622
2023-04-26T04:16:47.970Z,621.9
2023-04-26T04:17:49.775Z,621.7
2023-04-26T04:18:52.391Z,621.7
2023-04-26T04:19:54.141Z,621.6
2023-04-26T04:20:55.816Z,622
2023-04-26T04:21:57.495Z,622
2023-04-26T04:22:59.166Z,622.1
2023-04-26T04:24:00.795Z,622
2023-04-26T04:25:02.573Z,621.9
2023-04-26T04:26:04.260Z,621.5
2023-04-26T04:27:05.897Z,621.5
2023-04-26T04:28:07.577Z,621.8
2023-04-26T04:29:09.844Z,621.8
2023-04-26T04:30:11.523Z,621.8
2023-04-26T04:31:13.776Z,621.7
2023-04-26T04:32:15.387Z,621.8
2023-04-26T04:33:17.007Z,621
2023-04-26T04:34:18.587Z,620.9
2023-04-26T04:35:20.208Z,620.8
2023-04-26T04:36:21.875Z,620.5
2023-04-26T04:37:23.615Z,620.3
2023-04-26T04:38:25.219Z,620.4
2023-04-26T04:39:26.835Z,620.8
2023-04-26T04:40:28.454Z,620.8
2023-04-26T04:41:30.070Z,620.5
2023-04-26T04:42:31.702Z,620.6
2023-04-26T04:43:33.521Z,620.7
2023-04-26T04:44:35.095Z,620.4
2023-04-26T04:45:36.694Z,620.1
2023-04-26T04:46:38.846Z,619.8
2023-04-26T04:47:41.385Z,620.2
2023-04-26T04:48:43.162Z,620.4
2023-04-26T04:49:44.800Z,620.5
2023-04-26T04:50:46.417Z,620.5
2023-04-26T04:51:47.993Z,620.8
2023-04-26T04:52:49.654Z,620.9
2023-04-26T04:53:51.290Z,620.5
2023-04-26T04:54:52.975Z,620
2023-04-26T04:55:54.572Z,620.2
2023-04-26T04:56:56.206Z,620.5
2023-04-26T04:57:57.778Z,620.3
2023-04-26T04:58:59.522Z,620.6
2023-04-26T05:00:01.147Z,620.7
2023-04-26T05:01:02.793Z,620.7
2023-04-26T05:02:04.872Z,620.5
2023-04-26T05:03:07.186Z,620.3
2023-04-26T05:04:09.834Z,620.1
2023-04-26T05:05:12.270Z,619.7
2023-04-26T05:06:13.945Z,619.6
2023-04-26T05:07:15.587Z,619.9
2023-04-26T05:08:17.276Z,619.9
2023-04-26T05:09:18.946Z,619.7
2023-04-26T05:10:20.588Z,620.1
2023-04-26T05:11:22.152Z,620
2023-04-26T05:12:23.755Z,620.1
2023-04-26T05:13:25.370Z,620
2023-04-26T05:14:27.015Z,619.8
2023-04-26T05:15:28.609Z,619.8
2023-04-26T05:16:30.495Z,619.8
2023-04-26T05:17:32.380Z,619.5
2023-04-26T05:18:34.143Z,620
2023-04-26T05:19:35.774Z,619.5
2023-04-26T05:20:37.358Z,619.6
2023-04-26T05:21:38.996Z,619.7
2023-04-26T05:22:40.642Z,619.7
2023-04-26T05:23:42.342Z,619.5
2023-04-26T05:24:43.954Z,619.5
2023-04-26T05:25:45.809Z,619.4
2023-04-26T05:26:47.528Z,619.4
2023-04-26T05:27:49.160Z,619.3
2023-04-26T05:28:50.778Z,619
2023-04-26T05:29:52.578Z,619.3
2023-04-26T05:30:54.164Z,618.9
2023-04-26T05:31:56.375Z,619.1
2023-04-26T05:32:58.136Z,619.1
2023-04-26T05:33:59.780Z,619.2
2023-04-26T05:35:01.424Z,619.2
2023-04-26T05:36:03.132Z,619
2023-04-26T05:37:04.770Z,618.7
2023-04-26T05:38:09.340Z,618.7
2023-04-26T05:39:11.172Z,618.6
2023-04-26T05:40:12.919Z,618.8
2023-04-26T05:41:14.591Z,618.4
2023-04-26T05:42:18.622Z,619
2023-04-26T05:43:20.312Z,618.8
2023-04-26T05:44:21.978Z,618.8
2023-04-26T05:45:23.792Z,618.5
2023-04-26T05:46:26.169Z,618.9
2023-04-26T05:47:28.121Z,618.8
2023-04-26T05:48:29.814Z,618.6
2023-04-26T05:49:31.581Z,618.6
2023-04-26T05:50:33.323Z,618.7
2023-04-26T05:51:35.033Z,618.9
2023-04-26T05:52:36.659Z,618.5
2023-04-26T05:53:38.396Z,618.5
2023-04-26T05:54:40.237Z,618.5
2023-04-26T05:55:41.914Z,618.6
2023-04-26T05:56:43.661Z,618.7
2023-04-26T05:57:46.203Z,618.8
2023-04-26T05:58:47.948Z,618.6
2023-04-26T05:59:49.604Z,618.8
2023-04-26T06:00:51.330Z,619.1
2023-04-26T06:01:53.080Z,619
2023-04-26T06:02:55.514Z,618.8
2023-04-26T06:04:03.074Z,619
2023-04-26T06:05:05.982Z,619.2
2023-04-26T06:06:07.760Z,619.5
2023-04-26T06:07:09.468Z,619.4
2023-04-26T06:08:11.486Z,619.1
2023-04-26T06:09:13.240Z,619.4
2023-04-26T06:10:15.404Z,619.2
2023-04-26T06:11:17.102Z,619.4
2023-04-26T06:12:18.827Z,619.1
2023-04-26T06:13:20.507Z,619.2
2023-04-26T06:14:31.426Z,619.3
2023-04-26T06:15:33.116Z,619.6
2023-04-26T06:16:35.681Z,619.4
2023-04-26T06:17:37.647Z,619
2023-04-26T06:18:39.516Z,619.2
2023-04-26T06:19:41.181Z,619.1
2023-04-26T06:20:42.873Z,619.2
2023-04-26T06:21:44.636Z,619.5
2023-04-26T06:22:46.405Z,619.5
2023-04-26T06:23:48.113Z,619.1
2023-04-26T06:24:50.241Z,619.2
2023-04-26T06:25:52.054Z,619.5
2023-04-26T06:26:53.664Z,619.3
2023-04-26T06:27:55.379Z,619.7
2023-04-26T06:28:57.035Z,619.7
2023-04-26T06:29:58.751Z,619.5
2023-04-26T06:31:00.987Z,619.7
2023-04-26T06:32:03.005Z,619.8
2023-04-26T06:33:04.980Z,619.6
2023-04-26T06:34:08.874Z,619.7
2023-04-26T06:35:10.518Z,619.5
2023-04-26T06:36:12.222Z,619.6
2023-04-26T06:37:14.057Z,619.6
2023-04-26T06:38:15.743Z,619.5
2023-04-26T06:39:17.400Z,619.5
2023-04-26T06:40:19.360Z,620
2023-04-26T06:41:21.070Z,619.5
2023-04-26T06:42:23.198Z,619.6
2023-04-26T06:43:24.894Z,619.5
2023-04-26T06:44:26.629Z,619.4
2023-04-26T06:45:28.653Z,619.4
2023-04-26T06:46:30.702Z,619.5
2023-04-26T06:47:33.089Z,619.3
2023-04-26T06:48:35.467Z,619.3
2023-04-26T06:49:37.169Z,619.5
2023-04-26T06:50:38.801Z,619.3
2023-04-26T06:51:41.102Z,619.5
2023-04-26T06:52:46.351Z,619.1
2023-04-26T06:53:48.204Z,619.3
2023-04-26T06:54:58.248Z,619.3
2023-04-26T06:56:00.106Z,619.4
2023-04-26T06:57:02.232Z,619.2
2023-04-26T06:58:04.210Z,619.2
2023-04-26T06:59:06.173Z,618.9
2023-04-26T07:00:08.183Z,619.1
2023-04-26T07:01:10.098Z,619
2023-04-26T07:02:16.244Z,618.8
2023-04-26T07:03:18.775Z,618.7
2023-04-26T07:04:21.790Z,619.2
2023-04-26T07:05:24.324Z,618.7
2023-04-26T07:06:26.088Z,618.6
2023-04-26T07:07:27.918Z,618.3
2023-04-26T07:08:29.848Z,618.6
2023-04-26T07:09:31.597Z,618.2
2023-04-26T07:10:35.057Z,618.8
2023-04-26T07:11:36.843Z,618.4
2023-04-26T07:12:38.827Z,618.2
2023-04-26T07:13:40.674Z,618.6
2023-04-26T07:14:42.540Z,618.4
2023-04-26T07:15:44.532Z,618.2
2023-04-26T07:16:47.127Z,618.2
2023-04-26T07:17:49.207Z,618.3
2023-04-26T07:18:51.224Z,618.3
2023-04-26T07:19:56.646Z,618
2023-04-26T07:20:58.346Z,618.4
2023-04-26T07:22:00.093Z,618.6
2023-04-26T07:23:01.881Z,618
2023-04-26T07:24:03.588Z,618.2
2023-04-26T07:25:05.735Z,617.8
2023-04-26T07:26:07.376Z,618
2023-04-26T07:27:09.184Z,618.1
2023-04-26T07:28:11.150Z,618.5
2023-04-26T07:29:13.000Z,618.5
2023-04-26T07:30:14.898Z,618.5
2023-04-26T07:31:16.807Z,618.2
2023-04-26T07:32:18.682Z,618.4
2023-04-26T07:33:21.052Z,618.1
2023-04-26T07:34:23.072Z,617.6
2023-04-26T07:35:24.768Z,618
2023-04-26T07:36:26.590Z,617.8
2023-04-26T07:37:28.460Z,617.5
2023-04-26T07:38:30.249Z,617.3
2023-04-26T07:39:32.241Z,617.3
2023-04-26T07:40:34.078Z,617.2
2023-04-26T07:41:35.923Z,617.3
2023-04-26T07:42:37.690Z,617.4
2023-04-26T07:43:39.729Z,617.1
2023-04-26T07:44:41.657Z,617.3
2023-04-26T07:45:43.760Z,617.2
2023-04-26T07:46:45.597Z,617.4
2023-04-26T07:47:47.741Z,617.4
2023-04-26T07:48:49.593Z,617.1
2023-04-26T07:49:51.854Z,617.2
2023-04-26T07:50:53.738Z,617.4
2023-04-26T07:51:55.554Z,617.2
2023-04-26T07:52:57.400Z,617
2023-04-26T07:53:59.157Z,616.7
2023-04-26T07:55:01.017Z,616.6
2023-04-26T07:56:02.962Z,616.8
2023-04-26T07:57:04.752Z,616.4
2023-04-26T07:58:06.661Z,616.3
2023-04-26T07:59:11.942Z,616.9
2023-04-26T08:00:13.927Z,616.8
2023-04-26T08:01:17.563Z,616.8
2023-04-26T08:02:45.571Z,616.5
2023-04-26T08:03:48.495Z,617
2023-04-26T08:04:51.532Z,616.5
2023-04-26T08:05:55.092Z,616.1
2023-04-26T08:06:57.014Z,616.1
2023-04-26T08:07:58.951Z,616.1
2023-04-26T08:09:00.796Z,616.2
2023-04-26T08:10:03.113Z,615.7
2023-04-26T08:11:05.004Z,616
2023-04-26T08:12:06.998Z,616.1
2023-04-26T08:13:08.896Z,615.6
2023-04-26T08:14:10.959Z,615.8
2023-04-26T08:15:12.809Z,615.6
2023-04-26T08:16:14.662Z,616
2023-04-26T08:17:16.844Z,616.2
2023-04-26T08:18:18.677Z,616.3
2023-04-26T08:19:20.361Z,616.3
2023-04-26T08:20:22.180Z,616.4
2023-04-26T08:21:24.523Z,616.5
2023-04-26T08:22:26.384Z,616.1
2023-04-26T08:23:28.235Z,616.3
2023-04-26T08:24:30.080Z,615.9
2023-04-26T08:25:32.019Z,616.5
2023-04-26T08:26:33.995Z,616.3
2023-04-26T08:27:35.736Z,616.2
2023-04-26T08:28:37.463Z,616.3
2023-04-26T08:29:39.339Z,616.4
2023-04-26T08:30:41.641Z,616.3
2023-04-26T08:31:43.641Z,616.2
2023-04-26T08:32:45.827Z,616.3
2023-04-26T08:33:47.650Z,616.1
2023-04-26T08:34:49.488Z,616.5
2023-04-26T08:35:51.219Z,616
2023-04-26T08:36:53.356Z,615.9
2023-04-26T08:37:55.238Z,616.3
2023-04-26T08:38:59.950Z,615.9
2023-04-26T08:40:01.803Z,616.3
2023-04-26T08:41:03.623Z,616.3
2023-04-26T08:42:05.542Z,615.7
2023-04-26T08:43:07.283Z,616.2
2023-04-26T08:44:09.000Z,616.2
2023-04-26T08:45:10.815Z,616
2023-04-26T08:46:12.836Z,615.9
2023-04-26T08:47:14.563Z,615.9
2023-04-26T08:48:16.889Z,616.6
2023-04-26T08:49:18.672Z,615.7
2023-04-26T08:50:20.514Z,615.6
2023-04-26T08:51:22.465Z,615.7
2023-04-26T08:52:24.531Z,616.3
2023-04-26T08:53:26.377Z,616.1
2023-04-26T08:54:28.219Z,616.2
2023-04-26T08:55:29.981Z,615.7
2023-04-26T08:56:31.866Z,616
2023-04-26T08:57:33.714Z,616
2023-04-26T08:58:35.636Z,616.2
2023-04-26T08:59:37.453Z,616.4
2023-04-26T09:00:39.145Z,616.5
2023-04-26T09:01:41.318Z,616.4
2023-04-26T09:02:43.888Z,616.3
2023-04-26T09:03:46.604Z,616
2023-04-26T09:04:49.223Z,616.3
2023-04-26T09:05:51.055Z,615.9
2023-04-26T09:06:52.850Z,616.3
2023-04-26T09:07:54.950Z,615.7
2023-04-26T09:08:56.625Z,616
2023-04-26T09:09:58.435Z,616.1
2023-04-26T09:11:00.150Z,615.7
2023-04-26T09:12:02.039Z,615.3
2023-04-26T09:13:03.877Z,615.7
2023-04-26T09:14:05.733Z,615.8
2023-04-26T09:15:07.586Z,615.7
2023-04-26T09:16:09.629Z,615.6
2023-04-26T09:17:11.695Z,616
2023-04-26T09:18:13.538Z,615.7
2023-04-26T09:19:15.507Z,615.5
2023-04-26T09:20:19.337Z,615.5
2023-04-26T09:21:21.393Z,615.1
2023-04-26T09:22:23.224Z,615.2
2023-04-26T09:23:25.294Z,615.2
2023-04-26T09:24:27.212Z,615.2
2023-04-26T09:25:28.919Z,614.8
2023-04-26T09:26:30.646Z,615
2023-04-26T09:27:32.585Z,614.9
2023-04-26T09:28:34.398Z,614.9
2023-04-26T09:29:36.055Z,614.7
2023-04-26T09:30:37.787Z,614.7
2023-04-26T09:31:40.300Z,614.8
2023-04-26T09:32:42.377Z,614.9
2023-04-26T09:33:44.253Z,614.8
2023-04-26T09:34:46.176Z,615.1
2023-04-26T09:35:48.093Z,614.7
2023-04-26T09:36:50.123Z,614.7
2023-04-26T09:38:12.528Z,614.8
2023-04-26T09:39:15.377Z,615.1
2023-04-26T09:40:17.475Z,615.2
2023-04-26T09:41:19.338Z,615.1
2023-04-26T09:42:21.256Z,615
2023-04-26T09:43:23.441Z,615.3
2023-04-26T09:44:25.385Z,615.3
2023-04-26T09:45:27.157Z,615.3
2023-04-26T09:46:29.376Z,615.5
2023-04-26T09:47:31.687Z,615.2
2023-04-26T09:48:33.622Z,615.4
2023-04-26T09:49:35.675Z,615.7
2023-04-26T09:50:37.728Z,615.6
2023-04-26T09:51:39.563Z,615.5
2023-04-26T09:52:41.735Z,616
2023-04-26T09:53:43.683Z,615.9
2023-04-26T09:54:45.735Z,615.8
2023-04-26T09:55:47.607Z,615.8
2023-04-26T09:56:49.428Z,616
2023-04-26T09:57:51.399Z,616.1
2023-04-26T09:58:54.413Z,615.6
2023-04-26T09:59:56.468Z,615.7
2023-04-26T10:00:58.496Z,616
2023-04-26T10:02:00.320Z,616.1
2023-04-26T10:03:02.538Z,615.8
2023-04-26T10:04:04.874Z,615.8
2023-04-26T10:05:06.806Z,616.1
2023-04-26T10:06:08.663Z,616.1
2023-04-26T10:07:10.657Z,616
2023-04-26T10:08:12.399Z,616.2
2023-04-26T10:09:14.090Z,616.6
2023-04-26T10:10:15.981Z,616.3
2023-04-26T10:11:17.854Z,616.5
2023-04-26T10:12:19.749Z,616.2
2023-04-26T10:13:21.593Z,616.2
2023-04-26T10:14:23.402Z,616.5
2023-04-26T10:15:25.251Z,616.5
2023-04-26T10:16:27.408Z,616.2
2023-04-26T10:17:29.416Z,616.8
2023-04-26T10:18:31.266Z,616.5
2023-04-26T10:19:33.308Z,617
2023-04-26T10:20:35.323Z,616.9
2023-04-26T10:21:37.296Z,617.2
2023-04-26T10:22:39.476Z,617.4
2023-04-26T10:23:41.331Z,617.6
2023-04-26T10:24:43.181Z,617.6
2023-04-26T10:25:44.956Z,617.1
2023-04-26T10:26:46.741Z,617.4
2023-04-26T10:27:48.463Z,617.3
2023-04-26T10:29:03.397Z,617.3
2023-04-26T10:30:05.425Z,617.4
2023-04-26T10:31:07.252Z,617.2
2023-04-26T10:32:09.963Z,617.5
2023-04-26T10:33:12.112Z,617.6
2023-04-26T10:34:13.984Z,617.8
2023-04-26T10:35:16.023Z,617.6
2023-04-26T10:36:17.966Z,617.9
2023-04-26T10:37:19.858Z,617.5
2023-04-26T10:38:21.772Z,617.3
2023-04-26T10:39:23.575Z,617.9
2023-04-26T10:40:25.569Z,617.8
2023-04-26T10:41:27.523Z,617.8
2023-04-26T10:42:29.380Z,617.5
2023-04-26T10:43:31.227Z,617.8
2023-04-26T10:44:32.943Z,617.4
2023-04-26T10:45:35.128Z,617.7
2023-04-26T10:46:37.897Z,617.6
2023-04-26T10:47:39.985Z,617.5
2023-04-26T10:48:41.920Z,617.8
2023-04-26T10:49:43.797Z,617.5
2023-04-26T10:50:45.614Z,617.2
2023-04-26T10:51:47.410Z,617.2
2023-04-26T10:52:49.300Z,617.8
2023-04-26T10:53:52.249Z,617.4
2023-04-26T10:54:54.644Z,617.6
2023-04-26T10:55:56.489Z,617.8
2023-04-26T10:56:59.051Z,617.8
2023-04-26T10:58:00.849Z,617.8
2023-04-26T10:59:36.739Z,618.2
2023-04-26T11:00:42.088Z,618.1
2023-04-26T11:01:44.274Z,617.8
2023-04-26T11:02:46.520Z,617.6
2023-04-26T11:03:49.221Z,618
2023-04-26T11:04:51.369Z,617.8
2023-04-26T11:05:53.294Z,618.1
2023-04-26T11:06:55.106Z,618.2
2023-04-26T11:07:57.011Z,618.2
2023-04-26T11:08:58.821Z,617.7
2023-04-26T11:10:00.763Z,618.2
2023-04-26T11:11:02.927Z,617.7
2023-04-26T11:12:04.695Z,617.6
2023-04-26T11:13:06.815Z,617.8
2023-04-26T11:14:08.594Z,618
2023-04-26T11:15:10.448Z,618
2023-04-26T11:16:12.870Z,617.9
2023-04-26T11:17:14.728Z,618.1
2023-04-26T11:18:17.130Z,617.7
2023-04-26T11:19:18.873Z,617.9
2023-04-26T11:20:20.725Z,618.2
2023-04-26T11:21:23.197Z,617.9
2023-04-26T11:22:25.005Z,617.9
2023-04-26T11:23:26.774Z,618.4
2023-04-26T11:24:28.643Z,618
2023-04-26T11:25:30.589Z,617.8
2023-04-26T11:26:32.508Z,618.2
2023-04-26T11:27:34.436Z,617.9
2023-04-26T11:28:36.540Z,618.2
2023-04-26T11:29:38.422Z,618.5
2023-04-26T11:30:40.354Z,617.9
2023-04-26T11:31:42.256Z,618
2023-04-26T11:32:44.889Z,617.7
2023-04-26T11:33:51.309Z,617.9
2023-04-26T11:34:53.056Z,617.6
2023-04-26T11:35:55.194Z,617.3
2023-04-26T11:36:57.071Z,617.5
2023-04-26T11:37:59.046Z,617.6
2023-04-26T11:39:00.994Z,617.9
2023-04-26T11:40:02.875Z,617.7
2023-04-26T11:41:04.786Z,617.7
2023-04-26T11:42:06.474Z,618
2023-04-26T11:43:08.512Z,617.8
2023-04-26T11:44:10.550Z,617.4
2023-04-26T11:45:12.297Z,618
2023-04-26T11:46:14.487Z,617.8
2023-04-26T11:47:16.312Z,618.1
2023-04-26T11:48:18.365Z,618
2023-04-26T11:49:20.214Z,618
2023-04-26T11:50:22.067Z,618.3
2023-04-26T11:51:24.019Z,618.4
2023-04-26T11:52:25.875Z,618.5
2023-04-26T11:53:27.843Z,617.8
2023-04-26T11:54:29.575Z,618
2023-04-26T11:55:31.256Z,618.5
2023-04-26T11:56:33.149Z,618.8
2023-04-26T11:57:34.949Z,618.9
2023-04-26T11:58:36.864Z,618.7
2023-04-26T11:59:38.637Z,618.7
2023-04-26T12:00:41.247Z,618.7
2023-04-26T12:01:43.753Z,619
2023-04-26T12:02:46.209Z,619
2023-04-26T12:03:48.838Z,618.9
2023-04-26T12:04:51.534Z,618.9
2023-04-26T12:05:53.359Z,619.4
2023-04-26T12:06:54.994Z,619.5
2023-04-26T12:07:56.802Z,619.5
2023-04-26T12:08:58.746Z,619.4
2023-04-26T12:10:01.689Z,619.5
2023-04-26T12:11:03.550Z,619.9
2023-04-26T12:12:05.418Z,619.9
2023-04-26T12:13:07.267Z,619.8
2023-04-26T12:14:09.371Z,619.9
2023-04-26T12:15:15.869Z,619.8
2023-04-26T12:16:27.816Z,620.7
2023-04-26T12:17:30.617Z,620.1
2023-04-26T12:18:32.489Z,619.8
2023-04-26T12:19:34.442Z,619.9
2023-04-26T12:20:36.588Z,620.4
2023-04-26T12:21:38.451Z,620.4
2023-04-26T12:22:40.228Z,620.6
2023-04-26T12:23:42.148Z,620.5
2023-04-26T12:24:43.809Z,620.1
2023-04-26T12:25:45.754Z,620.3
2023-04-26T12:26:47.687Z,619.9
2023-04-26T12:27:49.498Z,619.9
2023-04-26T12:28:51.612Z,620.6
2023-04-26T12:29:53.675Z,620.5
2023-04-26T12:30:55.617Z,620.3
2023-04-26T12:31:58.093Z,620.7
2023-04-26T12:33:18.490Z,620.5
2023-04-26T12:34:20.307Z,620.4
2023-04-26T12:35:22.120Z,620.2
2023-04-26T12:36:24.025Z,620.6
2023-04-26T12:37:25.965Z,620.5
2023-04-26T12:38:27.909Z,620.1
2023-04-26T12:39:29.725Z,620.6
2023-04-26T12:40:31.611Z,620.7
2023-04-26T12:41:33.442Z,620.2
2023-04-26T12:42:35.287Z,620.6
2023-04-26T12:43:37.278Z,620.8
2023-04-26T12:44:38.992Z,620.8
2023-04-26T12:45:40.781Z,620.3
2023-04-26T12:46:43.199Z,620.3
2023-04-26T12:47:45.445Z,620.8
2023-04-26T12:48:47.420Z,620.4
2023-04-26T12:49:49.291Z,620.5
2023-04-26T12:50:52.062Z,620.6
2023-04-26T12:51:53.902Z,620.6
2023-04-26T12:52:55.714Z,620.2
2023-04-26T12:53:57.601Z,620
2023-04-26T12:54:59.255Z,620.7
2023-04-26T12:56:01.304Z,620.2
2023-04-26T12:57:03.146Z,620.5
2023-04-26T12:58:05.446Z,620.4
2023-04-26T12:59:07.266Z,620.5
2023-04-26T13:00:09.171Z,620.5
2023-04-26T13:01:11.350Z,619.8
2023-04-26T13:02:13.493Z,620.5
2023-04-26T13:03:16.338Z,620.2
2023-04-26T13:04:19.020Z,619.6
2023-04-26T13:05:21.127Z,620
2023-04-26T13:06:23.488Z,620
2023-04-26T13:07:25.353Z,619.4
2023-04-26T13:08:27.201Z,619.3
2023-04-26T13:09:29.082Z,619.7
2023-04-26T13:10:31.010Z,619.8
2023-04-26T13:11:33.370Z,619.4
2023-04-26T13:12:35.272Z,618.5
2023-04-26T13:13:45.516Z,619
2023-04-26T13:14:47.517Z,618.7
2023-04-26T13:15:49.530Z,618.2
2023-04-26T13:16:51.456Z,618.8
2023-04-26T13:17:53.487Z,618.4
2023-04-26T13:18:55.448Z,618.2
2023-04-26T13:19:57.441Z,618.3
2023-04-26T13:20:59.427Z,618.1
2023-04-26T13:22:01.275Z,617.9
2023-04-26T13:23:03.129Z,618
2023-04-26T13:24:04.985Z,618.1
2023-04-26T13:25:06.823Z,617.6
2023-04-26T13:26:08.691Z,617.3